Time;durP1;ratioP1;P1;durP2;ratioP2;P2;SDS_P1;SDS_P2;PMS_P1;PMS_P2;Temp;Humidity;BMP_temperature;BMP_pressure;BME280_temperature;BME280_humidity;BME280_pressure;Samples;Min_cycle;Max_cycle;Signal;HPM_P1;HPM_P2
2023/02/12 00:02:55;;;;;;;3.20;2.28;;;15.00;69.00;;;;;;10490728;28;20099;-54
2023/02/12 00:07:56;;;;;;;3.85;2.33;;;14.90;68.90;;;;;;10472773;28;20145;-55
2023/02/12 00:12:57;;;;;;;4.13;2.78;;;14.90;68.90;;;;;;10490245;28;20119;-54
2023/02/12 00:17:57;;;;;;;5.32;2.50;;;14.90;68.80;;;;;;10472022;28;20024;-55
2023/02/12 00:22:58;;;;;;;3.10;2.28;;;14.90;68.80;;;;;;10441531;28;20074;-55
2023/02/12 00:27:59;;;;;;;4.35;2.25;;;14.90;68.70;;;;;;10489787;28;20229;-55
2023/02/12 00:32:59;;;;;;;4.20;2.50;;;14.90;68.80;;;;;;10471758;28;20468;-55
2023/02/12 00:38:00;;;;;;;4.03;2.38;;;14.90;68.80;;;;;;10489443;28;20040;-54
2023/02/12 00:43:01;;;;;;;7.13;2.92;;;14.90;68.80;;;;;;10489400;28;20082;-55
2023/02/12 00:48:01;;;;;;;4.00;3.13;;;14.90;68.80;;;;;;10488964;28;20031;-55
2023/02/12 00:53:02;;;;;;;4.30;2.67;;;14.90;68.70;;;;;;10488787;28;20720;-54
2023/02/12 00:58:02;;;;;;;3.60;2.60;;;14.80;68.80;;;;;;10470743;28;20092;-55
2023/02/12 01:03:04;;;;;;;4.38;3.10;;;14.80;68.70;;;;;;10488772;28;20025;-55
2023/02/12 01:08:05;;;;;;;3.55;2.88;;;14.80;68.60;;;;;;10488393;28;20025;-57
2023/02/12 01:13:05;;;;;;;4.00;2.80;;;14.80;68.60;;;;;;10488335;28;20032;-54
2023/02/12 01:18:07;;;;;;;4.45;2.30;;;14.80;68.70;;;;;;10470138;28;20013;-54
2023/02/12 01:23:07;;;;;;;3.80;2.30;;;14.80;68.70;;;;;;10488339;28;20422;-54
2023/02/12 01:28:09;;;;;;;4.22;3.40;;;14.80;68.60;;;;;;10487906;28;20029;-53
2023/02/12 01:33:10;;;;;;;4.03;2.75;;;14.80;68.60;;;;;;10476029;28;20078;-55
2023/02/12 01:38:11;;;;;;;3.65;2.60;;;14.80;68.60;;;;;;10453531;28;20109;-54
2023/02/12 01:43:11;;;;;;;5.22;3.20;;;14.80;68.60;;;;;;10501589;28;20047;-55
2023/02/12 01:48:15;;;;;;;4.35;3.05;;;14.80;68.60;;;;;;10501485;28;20480;-54
2023/02/12 01:53:19;;;;;;;3.63;2.47;;;14.80;68.50;;;;;;10466673;28;20554;-54
2023/02/12 01:58:20;;;;;;;4.28;3.20;;;14.70;68.40;;;;;;10483529;28;20016;-54
2023/02/12 02:03:20;;;;;;;3.90;2.80;;;14.70;68.30;;;;;;10483112;28;20025;-52
2023/02/12 02:08:23;;;;;;;4.13;3.00;;;14.70;68.30;;;;;;10466152;28;20029;-55
2023/02/12 02:18:57;;;;;;;6.15;3.25;;;14.70;68.20;;;;;;10485015;28;20419;-54
2023/02/12 02:24:10;;;;;;;5.57;4.50;;;14.70;68.20;;;;;;10500712;28;20031;-54
2023/02/12 02:29:38;;;;;;;4.28;3.13;;;14.70;68.20;;;;;;10500612;28;20048;-55
2023/02/12 02:35:07;;;;;;;2.78;1.92;;;14.70;68.20;;;;;;10485138;28;20769;-54
2023/02/12 02:40:15;;;;;;;3.78;2.70;;;14.70;68.10;;;;;;10500263;28;20103;-55
2023/02/12 02:45:37;;;;;;;4.30;3.30;;;14.70;68.10;;;;;;10478343;28;20016;-55
2023/02/12 02:50:47;;;;;;;3.55;2.55;;;14.70;68.00;;;;;;10493872;28;20439;-56
2023/02/12 02:55:55;;;;;;;3.67;2.40;;;14.60;68.20;;;;;;10475924;28;20062;-53
2023/02/12 03:01:17;;;;;;;3.58;2.20;;;14.60;68.20;;;;;;10475786;28;20464;-55
2023/02/12 03:06:26;;;;;;;3.30;2.13;;;14.60;68.10;;;;;;10493124;28;20356;-55
2023/02/12 03:11:32;;;;;;;4.88;2.90;;;14.60;68.20;;;;;;10493075;28;20488;-55
2023/02/12 03:17:15;;;;;;;3.35;2.15;;;14.60;68.20;;;;;;10475172;28;20017;-54
2023/02/12 03:22:24;;;;;;;4.30;2.92;;;14.60;68.20;;;;;;10474813;28;20048;-52
2023/02/12 03:27:35;;;;;;;3.75;2.25;;;14.60;68.10;;;;;;10475077;28;20112;-54
2023/02/12 03:32:43;;;;;;;2.05;1.70;;;14.60;68.20;;;;;;10449291;28;20512;-54
2023/02/12 03:38:08;;;;;;;5.53;3.85;;;14.50;68.10;;;;;;10450417;28;20020;-55
2023/02/12 03:43:25;;;;;;;4.82;3.58;;;14.60;67.80;;;;;;10447006;28;20029;-54
2023/02/12 03:48:44;;;;;;;4.18;2.83;;;14.70;68.00;;;;;;10450129;28;20036;-54
2023/02/12 03:53:46;;;;;;;4.20;2.95;;;14.80;68.10;;;;;;10449884;28;20033;-54
2023/02/12 03:58:46;;;;;;;5.10;2.88;;;14.90;67.50;;;;;;10448454;28;20024;-54
2023/02/12 04:03:47;;;;;;;4.88;2.90;;;15.10;67.00;;;;;;10448131;28;20026;-53
2023/02/12 04:08:48;;;;;;;4.35;2.97;;;15.50;65.50;;;;;;10431309;28;20025;-55
2023/02/12 04:14:06;;;;;;;4.00;3.42;;;15.90;64.10;;;;;;10447565;28;20039;-56
2023/02/12 04:19:11;;;;;;;4.00;2.65;;;16.30;63.20;;;;;;10446676;28;20386;-53
2023/02/12 04:24:28;;;;;;;3.45;2.38;;;16.40;62.80;;;;;;10447381;28;20043;-55
2023/02/12 04:29:47;;;;;;;4.18;2.58;;;16.60;62.60;;;;;;10443349;28;20503;-54
2023/02/12 04:35:05;;;;;;;4.75;2.75;;;16.70;62.40;;;;;;10459491;28;20056;-54
2023/02/12 04:40:12;;;;;;;4.32;2.83;;;16.70;62.40;;;;;;10471912;28;20477;-54
2023/02/12 04:45:22;;;;;;;4.20;2.67;;;16.70;62.40;;;;;;10471273;28;20437;-55
2023/02/12 04:50:23;;;;;;;4.63;2.30;;;16.80;62.20;;;;;;10472124;28;20111;-55
2023/02/12 04:55:24;;;;;;;3.83;2.50;;;16.80;62.20;;;;;;10470673;28;20398;-55
2023/02/12 05:00:25;;;;;;;3.90;2.47;;;16.90;62.10;;;;;;10488638;28;20111;-54
2023/02/12 05:05:26;;;;;;;3.78;2.45;;;16.90;62.00;;;;;;10488607;28;20099;-56
2023/02/12 05:10:27;;;;;;;3.15;2.33;;;16.90;62.00;;;;;;10488124;28;20119;-54
2023/02/12 05:15:27;;;;;;;3.40;1.90;;;16.90;62.20;;;;;;10475395;28;20025;-53
2023/02/12 05:20:28;;;;;;;3.30;2.35;;;16.80;62.70;;;;;;10470063;28;20123;-55
2023/02/12 05:25:30;;;;;;;3.83;2.53;;;16.60;63.10;;;;;;10487853;28;20075;-53
2023/02/12 05:30:31;;;;;;;4.47;3.30;;;16.60;63.30;;;;;;10487832;28;20036;-53
2023/02/12 05:35:34;;;;;;;5.22;2.30;;;16.50;63.50;;;;;;10495396;28;20020;-54
2023/02/12 05:40:35;;;;;;;4.28;2.20;;;16.50;63.60;;;;;;10508557;28;20052;-56
2023/02/12 05:45:36;;;;;;;4.50;2.50;;;16.40;63.80;;;;;;10488792;28;20031;-55
2023/02/12 05:50:37;;;;;;;3.15;1.95;;;16.40;64.00;;;;;;10464249;28;20016;-55
2023/02/12 05:55:38;;;;;;;3.72;1.90;;;16.40;63.90;;;;;;10478998;28;20047;-54
2023/02/12 06:00:38;;;;;;;3.33;2.58;;;16.30;63.90;;;;;;10486331;28;20009;-55
2023/02/12 06:05:39;;;;;;;3.22;2.45;;;16.40;63.90;;;;;;10473508;28;20194;-54
2023/02/12 06:10:40;;;;;;;5.07;2.72;;;16.40;63.90;;;;;;10484945;28;20174;-52
2023/02/12 06:15:40;;;;;;;4.35;2.50;;;16.40;63.80;;;;;;10486946;28;20096;-53
2023/02/12 06:20:41;;;;;;;13.35;3.03;;;16.40;64.20;;;;;;10490678;28;20412;-50
2023/02/12 06:25:42;;;;;;;5.78;2.45;;;16.50;64.70;;;;;;10494592;28;20484;-54
2023/02/12 06:30:42;;;;;;;6.70;2.10;;;16.60;65.10;;;;;;10494314;28;20045;-53
2023/02/12 06:35:43;;;;;;;9.23;2.67;;;16.80;65.40;;;;;;10476383;28;20104;-56
2023/02/12 06:40:44;;;;;;;4.53;2.45;;;16.70;65.70;;;;;;10475742;28;20087;-54
2023/02/12 06:45:44;;;;;;;7.18;2.20;;;16.70;65.90;;;;;;10492670;28;20104;-54
2023/02/12 06:50:45;;;;;;;9.68;2.47;;;16.80;65.60;;;;;;10475292;28;20131;-54
2023/02/12 06:55:46;;;;;;;7.32;3.35;;;16.70;66.50;;;;;;10491500;28;20613;-53
2023/02/12 07:00:46;;;;;;;9.40;2.70;;;16.50;66.70;;;;;;10497299;28;20443;-57
2023/02/12 07:05:47;;;;;;;8.35;2.90;;;16.40;66.70;;;;;;10471813;28;20107;-52
2023/02/12 07:10:48;;;;;;;12.48;3.38;;;16.30;66.70;;;;;;10499554;28;20037;-54
2023/02/12 07:15:49;;;;;;;10.60;3.42;;;16.30;66.90;;;;;;10492879;28;20024;-54
2023/02/12 07:20:50;;;;;;;21.75;7.65;;;16.20;67.30;;;;;;10474807;28;20440;-54
2023/02/12 07:25:56;;;;;;;13.48;3.75;;;16.20;67.10;;;;;;10474296;28;20059;-53
2023/02/12 07:30:56;;;;;;;8.50;2.83;;;16.20;67.00;;;;;;10490658;28;20127;-54
2023/02/12 07:36:00;;;;;;;10.90;3.63;;;16.20;67.20;;;;;;10473029;28;20145;-54
2023/02/12 07:41:15;;;;;;;10.30;3.22;;;16.20;67.60;;;;;;10473467;28;20027;-54
2023/02/12 07:46:21;;;;;;;10.70;3.30;;;16.20;67.70;;;;;;10461588;28;20117;-54
2023/02/12 07:51:23;;;;;;;19.38;3.60;;;16.20;67.50;;;;;;10501840;28;20089;-54
2023/02/12 07:56:31;;;;;;;13.48;3.08;;;16.20;67.60;;;;;;10497069;28;20488;-55
2023/02/12 08:01:51;;;;;;;15.23;5.25;;;16.20;67.70;;;;;;10470208;28;20670;-54
2023/02/12 08:06:54;;;;;;;8.55;3.15;;;16.30;67.50;;;;;;10471633;28;20037;-54
2023/02/12 08:11:55;;;;;;;9.38;4.18;;;16.30;67.50;;;;;;10489071;28;20021;-53
2023/02/12 08:16:56;;;;;;;10.32;4.38;;;16.40;67.70;;;;;;10487622;28;20017;-55
2023/02/12 08:21:57;;;;;;;11.27;4.82;;;16.30;67.70;;;;;;10478757;28;20107;-55
2023/02/12 08:26:58;;;;;;;16.40;6.25;;;16.50;67.70;;;;;;10489837;28;20767;-54
2023/02/12 08:32:01;;;;;;;12.25;4.70;;;16.50;67.60;;;;;;10471462;28;20067;-52
2023/02/12 08:37:05;;;;;;;17.58;5.53;;;16.50;68.10;;;;;;10470910;28;20044;-51
2023/02/12 08:42:06;;;;;;;14.98;6.45;;;16.60;69.00;;;;;;10470018;28;20021;-53
2023/02/12 08:47:08;;;;;;;15.45;6.13;;;16.50;68.90;;;;;;10488472;28;20052;-54
2023/02/12 08:52:09;;;;;;;24.35;6.38;;;16.60;68.80;;;;;;10467415;28;20033;-55
2023/02/12 08:57:10;;;;;;;22.13;7.25;;;16.40;69.00;;;;;;10468289;28;20021;-53
2023/02/12 09:02:10;;;;;;;12.10;5.18;;;16.20;69.50;;;;;;10485312;28;20104;-54
2023/02/12 09:07:11;;;;;;;14.20;5.28;;;16.00;69.80;;;;;;10442384;28;20051;-54
2023/02/12 09:12:12;;;;;;;10.10;5.68;;;15.90;70.00;;;;;;10484846;28;20036;-55
2023/02/12 09:17:12;;;;;;;13.93;5.82;;;15.90;69.90;;;;;;10466747;28;20099;-52
2023/02/12 09:22:13;;;;;;;10.77;4.97;;;15.80;69.80;;;;;;10483562;28;20086;-54
2023/02/12 09:27:14;;;;;;;16.42;6.45;;;15.90;70.30;;;;;;10447880;28;20115;-50
2023/02/12 09:32:14;;;;;;;19.80;6.72;;;16.00;70.30;;;;;;10486123;28;20131;-49
2023/02/12 09:37:15;;;;;;;13.00;6.47;;;15.90;70.20;;;;;;10484941;28;20025;-53
2023/02/12 09:42:37;;;;;;;18.83;6.78;;;15.80;70.70;;;;;;10484945;28;20095;-54
2023/02/12 09:48:10;;;;;;;20.55;6.70;;;15.80;70.70;;;;;;10467863;28;20467;-52
2023/02/12 09:53:15;;;;;;;15.05;5.75;;;15.80;70.60;;;;;;10471687;28;20115;-52
2023/02/12 09:58:32;;;;;;;12.80;5.90;;;15.90;70.60;;;;;;10475396;28;20036;-53
2023/02/12 10:03:33;;;;;;;19.10;8.00;;;15.90;70.60;;;;;;10493308;28;20091;-54
2023/02/12 10:09:13;;;;;;;15.77;6.65;;;15.80;70.50;;;;;;10474663;28;20572;-52
2023/02/12 10:14:20;;;;;;;13.53;7.70;;;15.80;70.70;;;;;;10492747;28;20127;-50
2023/02/12 10:20:07;;;;;;;12.93;7.80;;;15.90;70.80;;;;;;10479594;28;20021;-53
2023/02/12 10:25:45;;;;;;;18.40;8.27;;;15.80;70.70;;;;;;10490750;28;20025;-52
2023/02/12 10:31:24;;;;;;;15.98;9.07;;;16.00;70.50;;;;;;10474234;28;20040;-54
2023/02/12 10:36:53;;;;;;;13.10;8.23;;;16.00;70.30;;;;;;10474491;28;20626;-53
2023/02/12 10:42:25;;;;;;;13.00;9.38;;;16.10;70.40;;;;;;10474215;28;20031;-53
2023/02/12 10:47:26;;;;;;;13.10;7.93;;;16.10;70.30;;;;;;10476310;28;20021;-55
2023/02/12 10:52:45;;;;;;;9.35;7.28;;;16.00;71.00;;;;;;10472879;28;20040;-54
2023/02/12 10:57:46;;;;;;;10.63;7.75;;;16.00;70.50;;;;;;10474392;28;20175;-54
2023/02/12 11:03:09;;;;;;;14.65;8.73;;;15.90;70.40;;;;;;10474886;28;20017;-54
2023/02/12 11:08:37;;;;;;;21.60;7.63;;;15.90;70.50;;;;;;10472595;28;20047;-56
2023/02/12 11:13:47;;;;;;;16.95;7.05;;;16.10;70.70;;;;;;10473051;28;20033;-55
2023/02/12 11:19:02;;;;;;;19.52;8.38;;;16.20;71.00;;;;;;10460546;28;20386;-54
2023/02/12 11:24:25;;;;;;;15.25;7.55;;;16.30;70.60;;;;;;10473217;28;20021;-52
2023/02/12 11:29:25;;;;;;;15.52;7.03;;;16.30;70.90;;;;;;10489875;28;21083;-54
2023/02/12 11:34:28;;;;;;;12.63;7.32;;;16.30;71.30;;;;;;10471608;28;20120;-53
2023/02/12 11:39:36;;;;;;;16.38;7.18;;;16.30;71.60;;;;;;10472023;28;20020;-51
2023/02/12 11:44:40;;;;;;;25.25;7.40;;;16.30;71.50;;;;;;10470715;28;20029;-51
2023/02/12 11:50:02;;;;;;;36.50;10.35;;;16.20;71.50;;;;;;10487365;28;20383;-55
2023/02/12 11:55:19;;;;;;;39.03;9.65;;;16.10;71.60;;;;;;10488477;28;20032;-55
2023/02/12 12:00:31;;;;;;;24.85;8.07;;;16.00;71.80;;;;;;10471352;28;20058;-56
2023/02/12 12:05:39;;;;;;;23.08;7.32;;;16.10;72.20;;;;;;10471245;28;20025;-55
2023/02/12 12:11:11;;;;;;;18.65;7.30;;;16.10;71.90;;;;;;10471889;28;20020;-55
2023/02/12 12:22:59;;;;;;;22.00;6.72;;;15.90;71.90;;;;;;10468550;28;20032;-55
2023/02/12 12:28:29;;;;;;;22.90;6.43;;;16.00;72.00;;;;;;10468695;28;20009;-53
2023/02/12 12:33:50;;;;;;;20.33;6.78;;;15.90;72.00;;;;;;10467653;28;20047;-53
2023/02/12 12:39:02;;;;;;;14.13;5.90;;;16.00;72.20;;;;;;10475379;28;20048;-53
2023/02/12 12:45:03;;;;;;;17.45;6.18;;;15.90;72.10;;;;;;10469083;28;20040;-55
2023/02/12 12:50:22;;;;;;;;;;;15.90;72.00;;;;;;10480041;28;20066;-55
2023/02/12 12:56:01;;;;;;;19.60;5.85;;;15.90;72.70;;;;;;10488436;28;19916;-55
2023/02/12 13:01:38;;;;;;;18.65;7.38;;;15.90;72.00;;;;;;10455171;28;20033;-54
2023/02/12 13:07:39;;;;;;;21.70;6.68;;;15.80;72.10;;;;;;10468090;28;20773;-56
2023/02/12 13:12:52;;;;;;;24.77;8.60;;;16.00;72.40;;;;;;10479027;28;20048;-55
2023/02/12 13:18:17;;;;;;;18.38;5.65;;;15.90;72.50;;;;;;10484993;28;20012;-55
2023/02/12 13:23:27;;;;;;;20.05;6.45;;;15.90;72.80;;;;;;10487528;28;20024;-57
2023/02/12 13:28:35;;;;;;;;;;;15.90;73.50;;;;;;10484508;28;20407;-56
2023/02/12 13:33:43;;;;;;;21.60;7.28;;;15.80;72.60;;;;;;10466318;28;20375;-54
2023/02/12 13:39:06;;;;;;;25.33;7.28;;;15.70;72.10;;;;;;10468042;28;20024;-54
2023/02/12 13:44:25;;;;;;;19.27;7.60;;;15.70;71.70;;;;;;10471273;28;20051;-55
2023/02/12 13:49:46;;;;;;;18.60;8.48;;;15.80;71.50;;;;;;10484799;28;20032;-55
2023/02/12 13:55:13;;;;;;;18.40;7.28;;;15.70;71.50;;;;;;10482185;28;20064;-55
2023/02/12 14:00:48;;;;;;;13.90;8.45;;;15.60;71.30;;;;;;10482360;28;20543;-54
2023/02/12 14:06:17;;;;;;;16.77;8.60;;;15.50;70.60;;;;;;10450276;28;20426;-54
2023/02/12 14:11:22;;;;;;;19.40;8.82;;;15.50;69.00;;;;;;10484946;28;20074;-55
2023/02/12 14:16:29;;;;;;;15.13;7.85;;;15.60;68.40;;;;;;10467225;28;20105;-55
2023/02/12 14:21:29;;;;;;;21.27;9.05;;;15.80;68.30;;;;;;10484659;28;20760;-54
2023/02/12 14:26:36;;;;;;;15.82;7.85;;;15.80;68.10;;;;;;10485241;28;20102;-55
2023/02/12 14:31:38;;;;;;;12.23;7.85;;;15.80;67.80;;;;;;10447490;28;20033;-55
2023/02/12 14:36:45;;;;;;;14.25;7.47;;;15.80;67.40;;;;;;10484611;28;20025;-53
2023/02/12 14:41:47;;;;;;;12.63;7.40;;;15.80;68.60;;;;;;10471644;28;20025;-56
2023/02/12 14:46:52;;;;;;;17.08;8.15;;;15.80;67.50;;;;;;10492525;28;20104;-54
2023/02/12 14:52:17;;;;;;;15.77;7.88;;;15.80;67.80;;;;;;10492968;28;20483;-56
2023/02/12 14:57:17;;;;;;;12.77;6.32;;;16.10;67.30;;;;;;10491581;28;20427;-55
2023/02/12 15:02:33;;;;;;;14.10;6.85;;;16.10;67.20;;;;;;10491263;28;20032;-55
2023/02/12 15:07:44;;;;;;;14.65;6.22;;;16.10;67.30;;;;;;10473370;28;20103;-54
2023/02/12 15:12:56;;;;;;;11.68;5.78;;;16.10;67.40;;;;;;10473319;28;20115;-54
2023/02/12 15:18:11;;;;;;;14.73;6.45;;;16.10;67.50;;;;;;10471711;28;20019;-56
2023/02/12 15:23:39;;;;;;;14.45;6.45;;;16.10;67.40;;;;;;10473436;28;20028;-55
2023/02/12 15:28:41;;;;;;;16.15;6.82;;;16.10;67.40;;;;;;10489913;28;20052;-55
2023/02/12 15:33:47;;;;;;;11.00;6.70;;;16.10;68.00;;;;;;10472145;28;20032;-54
2023/02/12 15:38:55;;;;;;;7.88;4.20;;;16.20;67.40;;;;;;10489558;28;20043;-54
2023/02/12 15:43:57;;;;;;;10.80;5.57;;;16.10;67.40;;;;;;10472653;28;20104;-55
2023/02/12 15:48:59;;;;;;;12.68;5.57;;;16.10;67.40;;;;;;10471649;28;20023;-55
2023/02/12 15:54:00;;;;;;;11.38;7.85;;;16.10;67.30;;;;;;10488563;28;20033;-55
2023/02/12 15:59:02;;;;;;;6.55;4.22;;;16.10;67.20;;;;;;10470739;28;20081;-55
2023/02/12 16:04:06;;;;;;;14.88;4.95;;;16.10;67.30;;;;;;10469825;28;20125;-54
2023/02/12 16:09:25;;;;;;;11.15;5.15;;;16.00;67.40;;;;;;10481532;28;20058;-56
2023/02/12 16:14:43;;;;;;;11.80;5.38;;;16.00;67.50;;;;;;10480939;28;20056;-56
2023/02/12 16:19:59;;;;;;;13.77;5.25;;;16.00;67.60;;;;;;10473302;28;20028;-58
2023/02/12 16:25:01;;;;;;;10.38;5.80;;;16.10;67.70;;;;;;10480756;28;20369;-54
2023/02/12 16:30:26;;;;;;;15.82;7.10;;;16.50;65.90;;;;;;10471431;28;20083;-54
2023/02/12 16:35:33;;;;;;;15.52;6.13;;;16.70;65.40;;;;;;10488201;28;20062;-54
2023/02/12 16:40:35;;;;;;;13.13;5.65;;;16.90;64.80;;;;;;10488264;28;20051;-53
2023/02/12 16:45:39;;;;;;;15.23;6.18;;;17.00;64.30;;;;;;10488801;28;20099;-53
2023/02/12 16:50:51;;;;;;;19.33;5.63;;;17.10;64.50;;;;;;10487251;28;20071;-49
2023/02/12 16:55:51;;;;;;;13.20;6.32;;;17.00;65.60;;;;;;10486680;28;20372;-52
2023/02/12 17:00:55;;;;;;;14.27;4.75;;;17.20;67.90;;;;;;10489105;28;20024;-53
2023/02/12 17:05:56;;;;;;;11.90;5.03;;;17.40;67.30;;;;;;10487930;28;20017;-53
2023/02/12 17:10:57;;;;;;;14.77;4.97;;;17.40;67.30;;;;;;10470518;28;20036;-53
2023/02/12 17:16:02;;;;;;;16.58;4.40;;;17.40;68.20;;;;;;10488224;28;20061;-55
2023/02/12 17:21:36;;;;;;;12.20;4.28;;;17.20;68.50;;;;;;10488157;28;20025;-54
2023/02/12 17:26:37;;;;;;;18.25;5.10;;;17.20;68.80;;;;;;10470494;28;20059;-52
2023/02/12 17:31:38;;;;;;;11.93;5.07;;;17.00;68.40;;;;;;10469692;28;20139;-53
2023/02/12 17:36:39;;;;;;;12.57;5.72;;;17.00;68.70;;;;;;10469351;28;20016;-55
2023/02/12 17:41:42;;;;;;;7.45;4.07;;;17.00;69.00;;;;;;10467738;28;20081;-54
2023/02/12 17:46:44;;;;;;;7.53;4.22;;;16.90;69.30;;;;;;10450599;28;20406;-53
2023/02/12 17:51:44;;;;;;;11.65;4.95;;;16.80;68.60;;;;;;10486939;28;20036;-54
2023/02/12 17:56:45;;;;;;;8.20;4.32;;;16.80;68.90;;;;;;10487014;28;20539;-52
2023/02/12 18:01:46;;;;;;;9.85;5.22;;;16.90;68.40;;;;;;10483534;28;20113;-52
2023/02/12 18:06:46;;;;;;;9.30;5.22;;;16.80;68.70;;;;;;10483711;28;20104;-52
2023/02/12 18:11:47;;;;;;;9.25;5.50;;;16.90;69.70;;;;;;10463130;28;20339;-53
2023/02/12 18:16:48;;;;;;;11.88;6.55;;;16.80;69.00;;;;;;10468748;28;20533;-56
2023/02/12 18:21:48;;;;;;;10.48;5.63;;;16.90;69.40;;;;;;10459895;28;20103;-53
2023/02/12 18:26:50;;;;;;;10.30;6.60;;;17.00;69.10;;;;;;10497869;28;20060;-53
2023/02/12 18:31:53;;;;;;;11.82;6.00;;;17.00;69.30;;;;;;10479540;28;20189;-52
2023/02/12 18:36:54;;;;;;;15.25;6.63;;;16.90;69.40;;;;;;10489790;28;20013;-51
2023/02/12 18:41:54;;;;;;;10.27;5.47;;;16.80;69.80;;;;;;10472895;28;20101;-52
2023/02/12 18:46:57;;;;;;;10.55;5.90;;;16.80;69.20;;;;;;10490414;28;20028;-52
2023/02/12 18:51:58;;;;;;;13.07;5.15;;;16.70;69.30;;;;;;10485616;28;20123;-53
2023/02/12 18:56:59;;;;;;;7.57;5.32;;;16.70;69.30;;;;;;10468744;28;20020;-54
2023/02/12 19:02:03;;;;;;;11.48;6.28;;;16.70;69.60;;;;;;10470989;28;20028;-49
2023/02/12 19:07:04;;;;;;;10.15;6.78;;;16.70;68.80;;;;;;10489463;28;20103;-52
2023/02/12 19:12:05;;;;;;;29.95;26.92;;;16.80;68.50;;;;;;10470172;28;20037;-50
2023/02/12 19:17:06;;;;;;;33.40;30.10;;;16.80;68.00;;;;;;10489526;28;20021;-52
2023/02/12 19:22:07;;;;;;;29.30;26.25;;;16.70;67.70;;;;;;10489956;28;20016;-52
2023/02/12 19:27:09;;;;;;;23.48;21.02;;;16.70;67.10;;;;;;10466727;28;20029;-52
2023/02/12 19:32:09;;;;;;;19.00;16.92;;;16.70;67.00;;;;;;10480154;28;20051;-55
2023/02/12 19:37:12;;;;;;;18.95;15.57;;;16.80;66.00;;;;;;10471874;28;20012;-53
2023/02/12 19:42:13;;;;;;;16.08;14.38;;;16.90;65.40;;;;;;10490331;28;20028;-57
2023/02/12 19:47:14;;;;;;;18.85;14.98;;;17.00;65.30;;;;;;10471333;28;20016;-52
2023/02/12 19:52:15;;;;;;;15.90;12.90;;;17.30;64.60;;;;;;10493522;28;20043;-54
2023/02/12 19:57:16;;;;;;;14.02;11.75;;;17.30;65.00;;;;;;10493271;28;20012;-52
2023/02/12 20:02:17;;;;;;;13.90;12.15;;;17.30;65.30;;;;;;10485828;28;20401;-53
2023/02/12 20:07:17;;;;;;;14.05;11.43;;;17.40;65.30;;;;;;10483092;28;20023;-51
2023/02/12 20:12:18;;;;;;;13.80;11.38;;;17.40;65.40;;;;;;10494943;28;20052;-53
2023/02/12 20:17:19;;;;;;;12.77;10.77;;;17.30;65.40;;;;;;10472024;28;20078;-54
2023/02/12 20:22:19;;;;;;;12.15;10.50;;;17.10;65.80;;;;;;10489357;28;20104;-53
2023/02/12 20:27:20;;;;;;;11.07;8.70;;;17.10;65.90;;;;;;10469678;28;20519;-55
2023/02/12 20:32:21;;;;;;;12.95;10.52;;;17.00;66.10;;;;;;10489257;28;20048;-53
2023/02/12 20:37:21;;;;;;;10.95;8.68;;;16.80;66.50;;;;;;10468701;28;20464;-54
2023/02/12 20:42:23;;;;;;;14.48;9.20;;;16.70;66.80;;;;;;10468834;28;20049;-59
2023/02/12 20:47:27;;;;;;;10.05;7.90;;;16.60;67.00;;;;;;10468576;28;20107;-56
2023/02/12 20:52:28;;;;;;;10.57;8.55;;;16.60;67.30;;;;;;10488639;28;20021;-55
2023/02/12 20:57:30;;;;;;;9.45;7.80;;;16.50;67.40;;;;;;10470772;28;20038;-56
2023/02/12 21:02:30;;;;;;;9.00;8.10;;;16.40;67.70;;;;;;10471092;28;20021;-55
2023/02/12 21:07:31;;;;;;;12.38;8.48;;;16.30;67.80;;;;;;10488808;28;20025;-54
2023/02/12 21:12:32;;;;;;;11.48;8.52;;;16.20;68.10;;;;;;10488125;28;20033;-55
2023/02/12 21:17:32;;;;;;;10.10;7.25;;;16.10;68.10;;;;;;10470535;28;20033;-54
2023/02/12 21:22:33;;;;;;;9.60;8.30;;;16.10;68.30;;;;;;10470133;28;20100;-56
2023/02/12 21:27:39;;;;;;;7.57;6.78;;;16.00;68.50;;;;;;10488293;28;20017;-55
2023/02/12 21:32:39;;;;;;;7.85;6.72;;;16.00;68.50;;;;;;10445013;28;20400;-55
2023/02/12 21:37:40;;;;;;;8.90;7.03;;;15.90;68.60;;;;;;10445165;28;20061;-55
2023/02/12 21:42:41;;;;;;;8.23;6.47;;;15.90;68.60;;;;;;10446234;28;20464;-55
2023/02/12 21:47:41;;;;;;;8.25;6.47;;;15.90;68.70;;;;;;10431991;28;20108;-55
2023/02/12 21:52:42;;;;;;;8.43;5.95;;;15.80;68.60;;;;;;10453898;28;20116;-53
2023/02/12 21:57:43;;;;;;;6.95;6.25;;;15.80;68.80;;;;;;10453237;28;20101;-56
2023/02/12 22:02:43;;;;;;;7.35;6.55;;;15.80;68.80;;;;;;10452714;28;20133;-55
2023/02/12 22:07:48;;;;;;;6.57;5.53;;;15.70;68.70;;;;;;10451073;28;20437;-55
2023/02/12 22:12:49;;;;;;;6.15;5.50;;;15.70;68.70;;;;;;10453584;28;20033;-56
2023/02/12 22:17:49;;;;;;;8.30;6.10;;;15.70;68.70;;;;;;10452180;28;20047;-56
2023/02/12 22:22:50;;;;;;;7.00;5.30;;;15.60;68.70;;;;;;10453601;28;20117;-56
2023/02/12 22:27:51;;;;;;;10.70;7.53;;;15.60;68.70;;;;;;10452232;28;20025;-56
2023/02/12 22:32:51;;;;;;;7.32;5.20;;;15.60;68.70;;;;;;10491652;28;20075;-55
2023/02/12 22:37:52;;;;;;;8.65;5.68;;;15.60;68.70;;;;;;10493974;28;20047;-57
2023/02/12 22:42:53;;;;;;;7.38;5.60;;;15.50;68.60;;;;;;10494044;28;20640;-54
2023/02/12 22:47:53;;;;;;;7.63;6.03;;;15.50;68.70;;;;;;10475748;28;20059;-56
2023/02/12 22:52:54;;;;;;;6.03;5.00;;;15.50;68.90;;;;;;10493642;28;20132;-56
2023/02/12 22:57:54;;;;;;;6.88;4.50;;;15.40;69.20;;;;;;10493445;28;20100;-54
2023/02/12 23:02:55;;;;;;;6.43;4.97;;;15.40;68.90;;;;;;10474791;28;20655;-55
2023/02/12 23:07:56;;;;;;;7.32;5.15;;;15.40;68.90;;;;;;10475346;28;20029;-56
2023/02/12 23:12:57;;;;;;;5.80;4.65;;;15.40;68.90;;;;;;10492812;28;20084;-58
2023/02/12 23:17:58;;;;;;;5.57;4.72;;;15.30;68.90;;;;;;10492747;28;20078;-56
2023/02/12 23:22:58;;;;;;;6.90;4.57;;;15.30;68.80;;;;;;10474786;28;20089;-56
2023/02/12 23:27:59;;;;;;;7.50;5.35;;;15.30;68.80;;;;;;10474294;28;20713;-56
2023/02/12 23:32:59;;;;;;;8.20;4.85;;;15.30;68.80;;;;;;10492604;28;20167;-54
2023/02/12 23:38:00;;;;;;;6.32;4.80;;;15.30;68.80;;;;;;10492137;28;20055;-55
2023/02/12 23:43:01;;;;;;;6.07;4.65;;;15.30;68.80;;;;;;10473567;28;20016;-56
2023/02/12 23:48:02;;;;;;;5.97;4.68;;;15.20;68.70;;;;;;10473451;28;20095;-55
2023/02/12 23:53:02;;;;;;;6.85;4.32;;;15.20;68.70;;;;;;10456719;28;20028;-56
2023/02/12 23:58:04;;;;;;;6.03;4.50;;;15.20;68.70;;;;;;10473437;28;20026;-56
